sensor_id;sensor_type;location;lat;lon;timestamp;P1;durP1;ratioP1;P2;durP2;ratioP2
61840;SDS011;47773;53.174;6.614;2022-08-01T00:00:07;11.55;;;4.72;;
61840;SDS011;47773;53.174;6.614;2022-08-01T00:02:33;9.63;;;4.30;;
61840;SDS011;47773;53.174;6.614;2022-08-01T00:04:59;9.02;;;4.45;;
61840;SDS011;47773;53.174;6.614;2022-08-01T00:07:25;7.95;;;4.15;;
61840;SDS011;47773;53.174;6.614;2022-08-01T00:09:51;5.85;;;3.60;;
61840;SDS011;47773;53.174;6.614;2022-08-01T00:12:17;12.38;;;3.58;;
61840;SDS011;47773;53.174;6.614;2022-08-01T00:14:42;6.70;;;3.67;;
61840;SDS011;47773;53.174;6.614;2022-08-01T00:17:08;6.35;;;3.03;;
61840;SDS011;47773;53.174;6.614;2022-08-01T00:19:34;7.93;;;2.97;;
61840;SDS011;47773;53.174;6.614;2022-08-01T00:21:59;6.25;;;2.92;;
61840;SDS011;47773;53.174;6.614;2022-08-01T00:24:25;7.20;;;2.60;;
61840;SDS011;47773;53.174;6.614;2022-08-01T00:26:51;9.35;;;3.45;;
61840;SDS011;47773;53.174;6.614;2022-08-01T00:29:16;7.10;;;3.00;;
61840;SDS011;47773;53.174;6.614;2022-08-01T00:31:42;8.80;;;3.75;;
61840;SDS011;47773;53.174;6.614;2022-08-01T00:34:08;5.40;;;3.15;;
61840;SDS011;47773;53.174;6.614;2022-08-01T00:36:33;4.85;;;3.08;;
61840;SDS011;47773;53.174;6.614;2022-08-01T00:38:59;6.05;;;2.58;;
61840;SDS011;47773;53.174;6.614;2022-08-01T00:41:25;7.88;;;2.75;;
61840;SDS011;47773;53.174;6.614;2022-08-01T00:43:50;7.10;;;2.60;;
61840;SDS011;47773;53.174;6.614;2022-08-01T00:46:16;4.00;;;2.65;;
61840;SDS011;47773;53.174;6.614;2022-08-01T00:48:42;4.28;;;3.00;;
61840;SDS011;47773;53.174;6.614;2022-08-01T00:51:07;9.25;;;3.38;;
61840;SDS011;47773;53.174;6.614;2022-08-01T00:53:34;5.28;;;3.25;;
61840;SDS011;47773;53.174;6.614;2022-08-01T00:56:00;7.40;;;3.08;;
61840;SDS011;47773;53.174;6.614;2022-08-01T00:58:26;6.70;;;3.15;;
61840;SDS011;47773;53.174;6.614;2022-08-01T01:00:55;7.03;;;3.30;;
61840;SDS011;47773;53.174;6.614;2022-08-01T01:03:22;5.93;;;3.53;;
61840;SDS011;47773;53.174;6.614;2022-08-01T01:05:51;7.45;;;3.45;;
61840;SDS011;47773;53.174;6.614;2022-08-01T01:11:27;8.75;;;3.47;;
61840;SDS011;47773;53.174;6.614;2022-08-01T01:14:01;6.35;;;3.20;;
61840;SDS011;47773;53.174;6.614;2022-08-01T01:16:34;8.30;;;3.33;;
61840;SDS011;47773;53.174;6.614;2022-08-01T01:19:05;6.07;;;3.10;;
61840;SDS011;47773;53.174;6.614;2022-08-01T01:24:38;11.65;;;2.85;;
61840;SDS011;47773;53.174;6.614;2022-08-01T01:27:24;6.15;;;2.55;;
61840;SDS011;47773;53.174;6.614;2022-08-01T01:30:02;9.50;;;2.27;;
61840;SDS011;47773;53.174;6.614;2022-08-01T01:32:33;9.15;;;2.03;;
61840;SDS011;47773;53.174;6.614;2022-08-01T01:35:26;5.35;;;1.90;;
61840;SDS011;47773;53.174;6.614;2022-08-01T01:37:57;5.93;;;1.85;;
61840;SDS011;47773;53.174;6.614;2022-08-01T01:40:33;7.93;;;2.00;;
61840;SDS011;47773;53.174;6.614;2022-08-01T01:43:00;13.88;;;2.08;;
61840;SDS011;47773;53.174;6.614;2022-08-01T01:45:26;7.15;;;2.00;;
61840;SDS011;47773;53.174;6.614;2022-08-01T01:47:53;5.38;;;1.55;;
61840;SDS011;47773;53.174;6.614;2022-08-01T01:50:20;9.05;;;2.20;;
61840;SDS011;47773;53.174;6.614;2022-08-01T01:52:48;8.98;;;1.85;;
61840;SDS011;47773;53.174;6.614;2022-08-01T01:55:15;8.80;;;2.28;;
61840;SDS011;47773;53.174;6.614;2022-08-01T01:57:42;11.70;;;2.30;;
61840;SDS011;47773;53.174;6.614;2022-08-01T02:00:10;8.20;;;2.10;;
61840;SDS011;47773;53.174;6.614;2022-08-01T02:02:37;12.30;;;1.95;;
61840;SDS011;47773;53.174;6.614;2022-08-01T02:05:05;7.05;;;1.77;;
61840;SDS011;47773;53.174;6.614;2022-08-01T02:07:33;6.47;;;1.73;;
61840;SDS011;47773;53.174;6.614;2022-08-01T02:10:01;14.48;;;1.60;;
61840;SDS011;47773;53.174;6.614;2022-08-01T02:12:28;6.20;;;1.90;;
61840;SDS011;47773;53.174;6.614;2022-08-01T02:14:57;8.43;;;1.95;;
61840;SDS011;47773;53.174;6.614;2022-08-01T02:17:24;9.95;;;1.92;;
61840;SDS011;47773;53.174;6.614;2022-08-01T02:19:53;7.05;;;1.75;;
61840;SDS011;47773;53.174;6.614;2022-08-01T02:22:21;4.28;;;1.42;;
61840;SDS011;47773;53.174;6.614;2022-08-01T02:25:15;12.82;;;2.10;;
61840;SDS011;47773;53.174;6.614;2022-08-01T02:27:52;10.63;;;1.70;;
61840;SDS011;47773;53.174;6.614;2022-08-01T02:30:19;6.70;;;1.75;;
61840;SDS011;47773;53.174;6.614;2022-08-01T02:32:49;7.68;;;1.50;;
61840;SDS011;47773;53.174;6.614;2022-08-01T02:35:28;8.85;;;1.50;;
61840;SDS011;47773;53.174;6.614;2022-08-01T02:37:57;12.63;;;1.88;;
61840;SDS011;47773;53.174;6.614;2022-08-01T02:40:26;7.97;;;1.60;;
61840;SDS011;47773;53.174;6.614;2022-08-01T02:42:54;6.85;;;1.60;;
61840;SDS011;47773;53.174;6.614;2022-08-01T02:45:22;12.82;;;1.80;;
61840;SDS011;47773;53.174;6.614;2022-08-01T02:47:50;11.60;;;2.33;;
61840;SDS011;47773;53.174;6.614;2022-08-01T02:50:20;8.90;;;2.00;;
61840;SDS011;47773;53.174;6.614;2022-08-01T02:52:50;16.00;;;2.47;;
61840;SDS011;47773;53.174;6.614;2022-08-01T02:55:17;7.43;;;2.55;;
61840;SDS011;47773;53.174;6.614;2022-08-01T02:57:44;12.98;;;2.75;;
61840;SDS011;47773;53.174;6.614;2022-08-01T03:00:13;14.95;;;2.83;;
61840;SDS011;47773;53.174;6.614;2022-08-01T03:02:40;14.88;;;3.30;;
61840;SDS011;47773;53.174;6.614;2022-08-01T03:05:07;10.40;;;2.72;;
61840;SDS011;47773;53.174;6.614;2022-08-01T03:07:37;12.32;;;2.42;;
61840;SDS011;47773;53.174;6.614;2022-08-01T03:10:04;9.75;;;2.50;;
61840;SDS011;47773;53.174;6.614;2022-08-01T03:12:31;14.63;;;2.80;;
61840;SDS011;47773;53.174;6.614;2022-08-01T03:14:58;15.38;;;3.08;;
61840;SDS011;47773;53.174;6.614;2022-08-01T03:17:26;15.10;;;2.80;;
61840;SDS011;47773;53.174;6.614;2022-08-01T03:19:54;13.45;;;2.92;;
61840;SDS011;47773;53.174;6.614;2022-08-01T03:22:22;15.32;;;3.03;;
61840;SDS011;47773;53.174;6.614;2022-08-01T03:24:51;14.70;;;3.83;;
61840;SDS011;47773;53.174;6.614;2022-08-01T03:27:21;14.05;;;2.80;;
61840;SDS011;47773;53.174;6.614;2022-08-01T03:29:49;14.55;;;2.60;;
61840;SDS011;47773;53.174;6.614;2022-08-01T03:32:16;13.93;;;2.90;;
61840;SDS011;47773;53.174;6.614;2022-08-01T03:34:44;13.02;;;3.17;;
61840;SDS011;47773;53.174;6.614;2022-08-01T03:39:49;13.32;;;2.53;;
61840;SDS011;47773;53.174;6.614;2022-08-01T03:42:19;10.68;;;2.85;;
61840;SDS011;47773;53.174;6.614;2022-08-01T03:44:52;8.65;;;2.47;;
61840;SDS011;47773;53.174;6.614;2022-08-01T03:47:22;16.17;;;2.67;;
61840;SDS011;47773;53.174;6.614;2022-08-01T03:49:54;9.18;;;2.83;;
61840;SDS011;47773;53.174;6.614;2022-08-01T03:52:22;9.93;;;2.92;;
61840;SDS011;47773;53.174;6.614;2022-08-01T03:54:53;12.98;;;2.53;;
61840;SDS011;47773;53.174;6.614;2022-08-01T03:57:21;9.93;;;2.42;;
61840;SDS011;47773;53.174;6.614;2022-08-01T03:59:48;11.77;;;2.45;;
61840;SDS011;47773;53.174;6.614;2022-08-01T04:02:14;8.73;;;2.45;;
61840;SDS011;47773;53.174;6.614;2022-08-01T04:04:41;16.58;;;3.55;;
61840;SDS011;47773;53.174;6.614;2022-08-01T04:07:23;16.88;;;2.80;;
61840;SDS011;47773;53.174;6.614;2022-08-01T04:09:50;14.15;;;3.22;;
61840;SDS011;47773;53.174;6.614;2022-08-01T04:12:16;19.00;;;2.90;;
61840;SDS011;47773;53.174;6.614;2022-08-01T04:14:42;13.77;;;2.83;;
61840;SDS011;47773;53.174;6.614;2022-08-01T04:17:08;10.25;;;2.58;;
61840;SDS011;47773;53.174;6.614;2022-08-01T04:19:34;14.80;;;3.45;;
61840;SDS011;47773;53.174;6.614;2022-08-01T04:22:00;12.95;;;2.78;;
61840;SDS011;47773;53.174;6.614;2022-08-01T04:24:27;12.75;;;2.80;;
61840;SDS011;47773;53.174;6.614;2022-08-01T04:26:55;10.10;;;3.58;;
61840;SDS011;47773;53.174;6.614;2022-08-01T04:29:23;8.40;;;3.10;;
61840;SDS011;47773;53.174;6.614;2022-08-01T04:31:50;15.65;;;2.97;;
61840;SDS011;47773;53.174;6.614;2022-08-01T04:34:20;17.55;;;2.78;;
61840;SDS011;47773;53.174;6.614;2022-08-01T04:36:50;16.85;;;2.55;;
61840;SDS011;47773;53.174;6.614;2022-08-01T04:39:17;14.68;;;2.65;;
61840;SDS011;47773;53.174;6.614;2022-08-01T04:41:46;15.63;;;2.60;;
61840;SDS011;47773;53.174;6.614;2022-08-01T04:44:13;14.27;;;2.90;;
61840;SDS011;47773;53.174;6.614;2022-08-01T04:46:39;11.27;;;2.55;;
61840;SDS011;47773;53.174;6.614;2022-08-01T04:49:10;16.77;;;2.53;;
61840;SDS011;47773;53.174;6.614;2022-08-01T04:51:36;13.77;;;2.72;;
61840;SDS011;47773;53.174;6.614;2022-08-01T04:54:14;12.73;;;3.20;;
61840;SDS011;47773;53.174;6.614;2022-08-01T04:56:39;16.92;;;2.47;;
61840;SDS011;47773;53.174;6.614;2022-08-01T04:59:06;19.52;;;2.92;;
61840;SDS011;47773;53.174;6.614;2022-08-01T05:01:51;22.98;;;3.20;;
61840;SDS011;47773;53.174;6.614;2022-08-01T05:04:16;16.58;;;2.78;;
61840;SDS011;47773;53.174;6.614;2022-08-01T05:06:42;20.52;;;3.30;;
61840;SDS011;47773;53.174;6.614;2022-08-01T05:09:08;15.75;;;3.42;;
61840;SDS011;47773;53.174;6.614;2022-08-01T05:11:33;15.63;;;3.05;;
61840;SDS011;47773;53.174;6.614;2022-08-01T05:13:59;15.18;;;2.45;;
61840;SDS011;47773;53.174;6.614;2022-08-01T05:16:25;21.83;;;3.00;;
61840;SDS011;47773;53.174;6.614;2022-08-01T05:18:51;16.17;;;3.00;;
61840;SDS011;47773;53.174;6.614;2022-08-01T05:21:17;17.23;;;3.83;;
61840;SDS011;47773;53.174;6.614;2022-08-01T05:23:42;17.23;;;2.78;;
61840;SDS011;47773;53.174;6.614;2022-08-01T05:26:08;19.60;;;3.17;;
61840;SDS011;47773;53.174;6.614;2022-08-01T05:28:35;14.68;;;2.55;;
61840;SDS011;47773;53.174;6.614;2022-08-01T05:31:00;15.10;;;2.70;;
61840;SDS011;47773;53.174;6.614;2022-08-01T05:33:26;19.85;;;3.58;;
61840;SDS011;47773;53.174;6.614;2022-08-01T05:35:52;16.17;;;2.40;;
61840;SDS011;47773;53.174;6.614;2022-08-01T05:38:17;19.88;;;2.67;;
61840;SDS011;47773;53.174;6.614;2022-08-01T05:40:43;22.20;;;3.05;;
61840;SDS011;47773;53.174;6.614;2022-08-01T05:43:08;18.80;;;3.40;;
61840;SDS011;47773;53.174;6.614;2022-08-01T05:45:34;18.80;;;3.13;;
61840;SDS011;47773;53.174;6.614;2022-08-01T05:48:00;15.05;;;2.95;;
61840;SDS011;47773;53.174;6.614;2022-08-01T05:50:25;22.98;;;3.53;;
61840;SDS011;47773;53.174;6.614;2022-08-01T05:52:52;17.05;;;2.45;;
61840;SDS011;47773;53.174;6.614;2022-08-01T05:55:17;27.63;;;2.72;;
61840;SDS011;47773;53.174;6.614;2022-08-01T05:57:43;21.17;;;3.33;;
61840;SDS011;47773;53.174;6.614;2022-08-01T06:00:08;20.40;;;2.70;;
61840;SDS011;47773;53.174;6.614;2022-08-01T06:02:39;19.40;;;3.45;;
61840;SDS011;47773;53.174;6.614;2022-08-01T06:05:05;19.77;;;3.15;;
61840;SDS011;47773;53.174;6.614;2022-08-01T06:07:31;20.00;;;3.05;;
61840;SDS011;47773;53.174;6.614;2022-08-01T06:09:57;25.58;;;4.47;;
61840;SDS011;47773;53.174;6.614;2022-08-01T06:12:23;24.25;;;3.85;;
61840;SDS011;47773;53.174;6.614;2022-08-01T06:14:48;20.33;;;3.42;;
61840;SDS011;47773;53.174;6.614;2022-08-01T06:17:14;19.70;;;2.83;;
61840;SDS011;47773;53.174;6.614;2022-08-01T06:19:39;15.10;;;3.17;;
61840;SDS011;47773;53.174;6.614;2022-08-01T06:22:05;18.33;;;3.00;;
61840;SDS011;47773;53.174;6.614;2022-08-01T06:24:34;27.55;;;3.58;;
61840;SDS011;47773;53.174;6.614;2022-08-01T06:26:59;22.88;;;3.47;;
61840;SDS011;47773;53.174;6.614;2022-08-01T06:29:25;18.33;;;2.78;;
61840;SDS011;47773;53.174;6.614;2022-08-01T06:31:50;22.17;;;3.13;;
61840;SDS011;47773;53.174;6.614;2022-08-01T06:34:17;20.27;;;3.30;;
61840;SDS011;47773;53.174;6.614;2022-08-01T06:36:43;29.48;;;4.50;;
61840;SDS011;47773;53.174;6.614;2022-08-01T06:39:09;27.55;;;3.40;;
61840;SDS011;47773;53.174;6.614;2022-08-01T06:41:34;20.25;;;3.00;;
61840;SDS011;47773;53.174;6.614;2022-08-01T06:44:00;21.02;;;3.25;;
61840;SDS011;47773;53.174;6.614;2022-08-01T06:46:27;14.50;;;2.88;;
61840;SDS011;47773;53.174;6.614;2022-08-01T06:48:53;16.77;;;2.70;;
61840;SDS011;47773;53.174;6.614;2022-08-01T06:51:19;23.73;;;3.15;;
61840;SDS011;47773;53.174;6.614;2022-08-01T06:53:45;18.40;;;2.75;;
61840;SDS011;47773;53.174;6.614;2022-08-01T06:56:11;18.90;;;3.03;;
61840;SDS011;47773;53.174;6.614;2022-08-01T06:58:37;22.85;;;2.83;;
61840;SDS011;47773;53.174;6.614;2022-08-01T07:01:03;21.10;;;2.75;;
61840;SDS011;47773;53.174;6.614;2022-08-01T07:03:34;24.48;;;2.92;;
61840;SDS011;47773;53.174;6.614;2022-08-01T07:06:00;23.27;;;2.83;;
61840;SDS011;47773;53.174;6.614;2022-08-01T07:08:26;21.80;;;3.08;;
61840;SDS011;47773;53.174;6.614;2022-08-01T07:10:52;15.35;;;2.80;;
61840;SDS011;47773;53.174;6.614;2022-08-01T07:13:17;17.73;;;2.08;;
61840;SDS011;47773;53.174;6.614;2022-08-01T07:15:46;18.88;;;2.60;;
61840;SDS011;47773;53.174;6.614;2022-08-01T07:18:12;24.40;;;3.08;;
61840;SDS011;47773;53.174;6.614;2022-08-01T07:20:38;24.77;;;3.10;;
61840;SDS011;47773;53.174;6.614;2022-08-01T07:23:04;15.48;;;2.17;;
61840;SDS011;47773;53.174;6.614;2022-08-01T07:25:29;21.60;;;2.70;;
61840;SDS011;47773;53.174;6.614;2022-08-01T07:27:55;15.48;;;2.28;;
61840;SDS011;47773;53.174;6.614;2022-08-01T07:30:21;18.27;;;2.58;;
61840;SDS011;47773;53.174;6.614;2022-08-01T07:32:47;22.33;;;2.70;;
61840;SDS011;47773;53.174;6.614;2022-08-01T07:35:13;16.48;;;2.20;;
61840;SDS011;47773;53.174;6.614;2022-08-01T07:37:39;20.88;;;2.95;;
61840;SDS011;47773;53.174;6.614;2022-08-01T07:40:05;14.40;;;3.03;;
61840;SDS011;47773;53.174;6.614;2022-08-01T07:42:31;18.85;;;2.50;;
61840;SDS011;47773;53.174;6.614;2022-08-01T07:44:57;21.75;;;2.75;;
61840;SDS011;47773;53.174;6.614;2022-08-01T07:47:23;16.67;;;2.60;;
61840;SDS011;47773;53.174;6.614;2022-08-01T07:49:49;13.90;;;2.03;;
61840;SDS011;47773;53.174;6.614;2022-08-01T07:52:16;15.40;;;2.60;;
61840;SDS011;47773;53.174;6.614;2022-08-01T07:54:41;26.42;;;3.05;;
61840;SDS011;47773;53.174;6.614;2022-08-01T07:57:08;18.05;;;2.35;;
61840;SDS011;47773;53.174;6.614;2022-08-01T07:59:34;19.10;;;2.33;;
61840;SDS011;47773;53.174;6.614;2022-08-01T08:02:00;14.52;;;3.65;;
61840;SDS011;47773;53.174;6.614;2022-08-01T08:04:26;21.83;;;2.55;;
61840;SDS011;47773;53.174;6.614;2022-08-01T08:06:52;28.63;;;2.92;;
61840;SDS011;47773;53.174;6.614;2022-08-01T08:09:18;14.75;;;2.58;;
61840;SDS011;47773;53.174;6.614;2022-08-01T08:11:44;15.18;;;2.85;;
61840;SDS011;47773;53.174;6.614;2022-08-01T08:14:10;13.95;;;2.20;;
61840;SDS011;47773;53.174;6.614;2022-08-01T08:16:36;19.30;;;2.45;;
61840;SDS011;47773;53.174;6.614;2022-08-01T08:19:02;14.43;;;1.80;;
61840;SDS011;47773;53.174;6.614;2022-08-01T08:21:28;19.23;;;2.08;;
61840;SDS011;47773;53.174;6.614;2022-08-01T08:23:55;18.23;;;2.15;;
61840;SDS011;47773;53.174;6.614;2022-08-01T08:26:39;10.75;;;2.00;;
61840;SDS011;47773;53.174;6.614;2022-08-01T08:29:05;8.50;;;1.40;;
61840;SDS011;47773;53.174;6.614;2022-08-01T08:31:31;13.23;;;2.03;;
61840;SDS011;47773;53.174;6.614;2022-08-01T08:33:57;13.13;;;2.13;;
61840;SDS011;47773;53.174;6.614;2022-08-01T08:36:23;18.80;;;2.70;;
61840;SDS011;47773;53.174;6.614;2022-08-01T08:38:49;9.48;;;1.63;;
61840;SDS011;47773;53.174;6.614;2022-08-01T08:41:15;10.63;;;1.50;;
61840;SDS011;47773;53.174;6.614;2022-08-01T08:43:40;16.15;;;2.08;;
61840;SDS011;47773;53.174;6.614;2022-08-01T08:46:06;12.40;;;2.30;;
61840;SDS011;47773;53.174;6.614;2022-08-01T08:48:33;11.15;;;1.85;;
61840;SDS011;47773;53.174;6.614;2022-08-01T08:50:59;13.05;;;2.10;;
61840;SDS011;47773;53.174;6.614;2022-08-01T08:53:26;13.13;;;1.73;;
61840;SDS011;47773;53.174;6.614;2022-08-01T08:55:52;14.52;;;1.85;;
61840;SDS011;47773;53.174;6.614;2022-08-01T08:58:21;9.52;;;2.08;;
61840;SDS011;47773;53.174;6.614;2022-08-01T09:00:49;10.85;;;1.77;;
61840;SDS011;47773;53.174;6.614;2022-08-01T09:03:15;14.60;;;1.73;;
61840;SDS011;47773;53.174;6.614;2022-08-01T09:05:41;15.10;;;2.08;;
61840;SDS011;47773;53.174;6.614;2022-08-01T09:08:08;16.33;;;2.13;;
61840;SDS011;47773;53.174;6.614;2022-08-01T09:10:33;18.80;;;2.00;;
61840;SDS011;47773;53.174;6.614;2022-08-01T09:15:39;12.73;;;1.70;;
61840;SDS011;47773;53.174;6.614;2022-08-01T09:18:06;15.57;;;1.38;;
61840;SDS011;47773;53.174;6.614;2022-08-01T09:20:32;10.70;;;1.52;;
61840;SDS011;47773;53.174;6.614;2022-08-01T09:23:00;6.85;;;1.10;;
61840;SDS011;47773;53.174;6.614;2022-08-01T09:25:26;12.85;;;1.45;;
61840;SDS011;47773;53.174;6.614;2022-08-01T09:28:04;13.00;;;1.65;;
61840;SDS011;47773;53.174;6.614;2022-08-01T09:30:37;10.27;;;1.55;;
61840;SDS011;47773;53.174;6.614;2022-08-01T09:33:05;11.45;;;1.52;;
61840;SDS011;47773;53.174;6.614;2022-08-01T09:35:32;10.55;;;1.50;;
61840;SDS011;47773;53.174;6.614;2022-08-01T09:38:13;14.73;;;1.75;;
61840;SDS011;47773;53.174;6.614;2022-08-01T09:40:47;10.93;;;1.45;;
61840;SDS011;47773;53.174;6.614;2022-08-01T09:43:20;7.03;;;1.13;;
61840;SDS011;47773;53.174;6.614;2022-08-01T09:45:47;12.93;;;1.58;;
61840;SDS011;47773;53.174;6.614;2022-08-01T09:48:13;11.02;;;1.30;;
61840;SDS011;47773;53.174;6.614;2022-08-01T09:50:42;13.48;;;1.85;;
61840;SDS011;47773;53.174;6.614;2022-08-01T09:53:09;13.98;;;1.48;;
61840;SDS011;47773;53.174;6.614;2022-08-01T09:55:36;7.95;;;1.27;;
61840;SDS011;47773;53.174;6.614;2022-08-01T09:58:03;9.32;;;1.15;;
61840;SDS011;47773;53.174;6.614;2022-08-01T10:00:30;8.55;;;1.40;;
61840;SDS011;47773;53.174;6.614;2022-08-01T10:02:57;11.25;;;1.98;;
61840;SDS011;47773;53.174;6.614;2022-08-01T10:05:30;8.85;;;1.50;;
61840;SDS011;47773;53.174;6.614;2022-08-01T10:07:58;10.77;;;1.40;;
61840;SDS011;47773;53.174;6.614;2022-08-01T10:10:24;10.82;;;1.20;;
61840;SDS011;47773;53.174;6.614;2022-08-01T10:12:51;14.02;;;1.70;;
61840;SDS011;47773;53.174;6.614;2022-08-01T10:15:17;8.40;;;1.85;;
61840;SDS011;47773;53.174;6.614;2022-08-01T10:17:55;12.55;;;1.65;;
61840;SDS011;47773;53.174;6.614;2022-08-01T10:20:27;14.77;;;1.40;;
61840;SDS011;47773;53.174;6.614;2022-08-01T10:22:55;10.88;;;1.05;;
61840;SDS011;47773;53.174;6.614;2022-08-01T10:25:25;13.27;;;1.25;;
61840;SDS011;47773;53.174;6.614;2022-08-01T10:27:53;11.20;;;1.20;;
61840;SDS011;47773;53.174;6.614;2022-08-01T10:30:23;7.78;;;1.45;;
61840;SDS011;47773;53.174;6.614;2022-08-01T10:32:49;10.63;;;1.55;;
61840;SDS011;47773;53.174;6.614;2022-08-01T10:35:17;8.80;;;1.08;;
61840;SDS011;47773;53.174;6.614;2022-08-01T10:37:44;7.43;;;1.30;;
61840;SDS011;47773;53.174;6.614;2022-08-01T10:40:14;10.98;;;1.52;;
61840;SDS011;47773;53.174;6.614;2022-08-01T10:42:44;17.17;;;1.67;;
61840;SDS011;47773;53.174;6.614;2022-08-01T10:45:12;10.95;;;1.40;;
61840;SDS011;47773;53.174;6.614;2022-08-01T10:47:42;13.75;;;1.60;;
61840;SDS011;47773;53.174;6.614;2022-08-01T10:50:15;14.32;;;1.40;;
61840;SDS011;47773;53.174;6.614;2022-08-01T10:58:20;10.30;;;1.30;;
61840;SDS011;47773;53.174;6.614;2022-08-01T11:03:38;7.25;;;1.40;;
61840;SDS011;47773;53.174;6.614;2022-08-01T11:06:05;19.85;;;1.85;;
61840;SDS011;47773;53.174;6.614;2022-08-01T11:08:31;8.68;;;1.30;;
61840;SDS011;47773;53.174;6.614;2022-08-01T11:11:03;8.07;;;1.30;;
61840;SDS011;47773;53.174;6.614;2022-08-01T11:16:37;9.82;;;1.13;;
61840;SDS011;47773;53.174;6.614;2022-08-01T11:19:04;9.02;;;1.10;;
61840;SDS011;47773;53.174;6.614;2022-08-01T11:27:22;7.35;;;1.00;;
61840;SDS011;47773;53.174;6.614;2022-08-01T11:32:33;8.73;;;0.95;;
61840;SDS011;47773;53.174;6.614;2022-08-01T11:35:20;3.28;;;0.80;;
61840;SDS011;47773;53.174;6.614;2022-08-01T11:37:48;10.32;;;1.08;;
61840;SDS011;47773;53.174;6.614;2022-08-01T11:42:41;8.10;;;1.08;;
61840;SDS011;47773;53.174;6.614;2022-08-01T11:45:07;7.90;;;1.35;;
61840;SDS011;47773;53.174;6.614;2022-08-01T11:50:31;11.65;;;1.15;;
61840;SDS011;47773;53.174;6.614;2022-08-01T11:53:02;8.32;;;1.27;;
61840;SDS011;47773;53.174;6.614;2022-08-01T11:55:33;9.63;;;1.33;;
61840;SDS011;47773;53.174;6.614;2022-08-01T11:58:02;10.25;;;1.15;;
61840;SDS011;47773;53.174;6.614;2022-08-01T12:00:32;13.07;;;1.40;;
61840;SDS011;47773;53.174;6.614;2022-08-01T12:05:24;12.07;;;1.58;;
61840;SDS011;47773;53.174;6.614;2022-08-01T12:07:50;8.60;;;0.90;;
61840;SDS011;47773;53.174;6.614;2022-08-01T12:10:18;4.78;;;0.90;;
61840;SDS011;47773;53.174;6.614;2022-08-01T12:12:46;7.90;;;1.08;;
61840;SDS011;47773;53.174;6.614;2022-08-01T12:15:14;6.47;;;0.90;;
61840;SDS011;47773;53.174;6.614;2022-08-01T12:17:44;4.18;;;0.80;;
61840;SDS011;47773;53.174;6.614;2022-08-01T12:20:14;9.77;;;1.10;;
61840;SDS011;47773;53.174;6.614;2022-08-01T12:22:44;8.88;;;1.00;;
61840;SDS011;47773;53.174;6.614;2022-08-01T12:25:16;10.10;;;0.93;;
61840;SDS011;47773;53.174;6.614;2022-08-01T12:27:43;6.95;;;0.80;;
61840;SDS011;47773;53.174;6.614;2022-08-01T12:30:11;9.98;;;1.40;;
61840;SDS011;47773;53.174;6.614;2022-08-01T12:32:39;5.95;;;0.80;;
61840;SDS011;47773;53.174;6.614;2022-08-01T12:35:09;6.70;;;1.10;;
61840;SDS011;47773;53.174;6.614;2022-08-01T12:37:58;4.85;;;1.10;;
61840;SDS011;47773;53.174;6.614;2022-08-01T12:40:33;5.85;;;0.80;;
61840;SDS011;47773;53.174;6.614;2022-08-01T12:43:01;7.78;;;1.27;;
61840;SDS011;47773;53.174;6.614;2022-08-01T12:45:33;9.32;;;1.08;;
61840;SDS011;47773;53.174;6.614;2022-08-01T12:48:08;8.35;;;1.38;;
61840;SDS011;47773;53.174;6.614;2022-08-01T12:50:37;7.72;;;1.52;;
61840;SDS011;47773;53.174;6.614;2022-08-01T12:53:04;3.83;;;1.00;;
61840;SDS011;47773;53.174;6.614;2022-08-01T12:55:31;7.63;;;1.13;;
61840;SDS011;47773;53.174;6.614;2022-08-01T12:58:04;5.57;;;1.08;;
61840;SDS011;47773;53.174;6.614;2022-08-01T13:00:32;9.50;;;1.20;;
61840;SDS011;47773;53.174;6.614;2022-08-01T13:03:01;7.53;;;1.00;;
61840;SDS011;47773;53.174;6.614;2022-08-01T13:05:26;8.82;;;1.17;;
61840;SDS011;47773;53.174;6.614;2022-08-01T13:07:52;8.32;;;1.20;;
61840;SDS011;47773;53.174;6.614;2022-08-01T13:10:28;5.35;;;0.90;;
61840;SDS011;47773;53.174;6.614;2022-08-01T13:12:56;10.38;;;1.25;;
61840;SDS011;47773;53.174;6.614;2022-08-01T13:15:27;6.78;;;1.17;;
61840;SDS011;47773;53.174;6.614;2022-08-01T13:17:57;8.57;;;1.70;;
61840;SDS011;47773;53.174;6.614;2022-08-01T13:20:25;13.18;;;1.30;;
61840;SDS011;47773;53.174;6.614;2022-08-01T13:22:51;10.55;;;1.02;;
61840;SDS011;47773;53.174;6.614;2022-08-01T13:25:17;6.90;;;0.85;;
61840;SDS011;47773;53.174;6.614;2022-08-01T13:27:43;5.85;;;0.95;;
61840;SDS011;47773;53.174;6.614;2022-08-01T13:30:10;12.32;;;1.33;;
61840;SDS011;47773;53.174;6.614;2022-08-01T13:32:41;8.18;;;1.10;;
61840;SDS011;47773;53.174;6.614;2022-08-01T13:35:10;10.30;;;1.02;;
61840;SDS011;47773;53.174;6.614;2022-08-01T13:37:41;8.60;;;0.90;;
61840;SDS011;47773;53.174;6.614;2022-08-01T13:40:07;10.25;;;1.08;;
61840;SDS011;47773;53.174;6.614;2022-08-01T13:42:35;10.13;;;1.23;;
61840;SDS011;47773;53.174;6.614;2022-08-01T13:45:01;7.13;;;1.30;;
61840;SDS011;47773;53.174;6.614;2022-08-01T13:47:28;6.53;;;1.00;;
61840;SDS011;47773;53.174;6.614;2022-08-01T13:49:54;8.80;;;1.02;;
61840;SDS011;47773;53.174;6.614;2022-08-01T13:52:19;9.60;;;1.27;;
61840;SDS011;47773;53.174;6.614;2022-08-01T13:54:45;9.93;;;1.30;;
61840;SDS011;47773;53.174;6.614;2022-08-01T13:57:13;6.75;;;1.05;;
61840;SDS011;47773;53.174;6.614;2022-08-01T13:59:41;8.95;;;1.35;;
61840;SDS011;47773;53.174;6.614;2022-08-01T14:02:07;8.65;;;1.20;;
61840;SDS011;47773;53.174;6.614;2022-08-01T14:04:32;7.32;;;1.00;;
61840;SDS011;47773;53.174;6.614;2022-08-01T14:06:58;5.10;;;1.00;;
61840;SDS011;47773;53.174;6.614;2022-08-01T14:09:23;9.70;;;1.30;;
61840;SDS011;47773;53.174;6.614;2022-08-01T14:11:50;9.63;;;1.05;;
61840;SDS011;47773;53.174;6.614;2022-08-01T14:14:15;9.23;;;0.98;;
61840;SDS011;47773;53.174;6.614;2022-08-01T14:16:41;7.35;;;1.20;;
61840;SDS011;47773;53.174;6.614;2022-08-01T14:19:09;9.90;;;1.52;;
61840;SDS011;47773;53.174;6.614;2022-08-01T14:21:35;6.47;;;0.90;;
61840;SDS011;47773;53.174;6.614;2022-08-01T14:24:00;11.63;;;1.17;;
61840;SDS011;47773;53.174;6.614;2022-08-01T14:26:26;6.63;;;1.02;;
61840;SDS011;47773;53.174;6.614;2022-08-01T14:28:52;13.10;;;1.45;;
61840;SDS011;47773;53.174;6.614;2022-08-01T14:31:18;4.97;;;0.95;;
61840;SDS011;47773;53.174;6.614;2022-08-01T14:33:43;11.10;;;1.88;;
61840;SDS011;47773;53.174;6.614;2022-08-01T14:36:09;4.70;;;1.25;;
61840;SDS011;47773;53.174;6.614;2022-08-01T14:38:35;11.00;;;0.95;;
61840;SDS011;47773;53.174;6.614;2022-08-01T14:41:00;4.93;;;1.00;;
61840;SDS011;47773;53.174;6.614;2022-08-01T14:43:28;10.10;;;1.30;;
61840;SDS011;47773;53.174;6.614;2022-08-01T14:45:56;10.38;;;1.20;;
61840;SDS011;47773;53.174;6.614;2022-08-01T14:48:22;12.13;;;1.50;;
61840;SDS011;47773;53.174;6.614;2022-08-01T14:50:47;9.32;;;1.25;;
61840;SDS011;47773;53.174;6.614;2022-08-01T14:53:13;8.73;;;1.10;;
61840;SDS011;47773;53.174;6.614;2022-08-01T14:55:39;8.98;;;1.45;;
61840;SDS011;47773;53.174;6.614;2022-08-01T14:58:04;9.52;;;1.33;;
61840;SDS011;47773;53.174;6.614;2022-08-01T15:00:30;10.50;;;1.67;;
61840;SDS011;47773;53.174;6.614;2022-08-01T15:02:55;8.73;;;1.50;;
61840;SDS011;47773;53.174;6.614;2022-08-01T15:05:21;10.45;;;1.20;;
61840;SDS011;47773;53.174;6.614;2022-08-01T15:07:47;10.35;;;1.30;;
61840;SDS011;47773;53.174;6.614;2022-08-01T15:10:12;8.20;;;1.23;;
61840;SDS011;47773;53.174;6.614;2022-08-01T15:12:38;5.80;;;1.35;;
61840;SDS011;47773;53.174;6.614;2022-08-01T15:15:04;11.55;;;1.30;;
61840;SDS011;47773;53.174;6.614;2022-08-01T15:17:31;6.97;;;1.13;;
61840;SDS011;47773;53.174;6.614;2022-08-01T15:19:59;10.07;;;1.00;;
61840;SDS011;47773;53.174;6.614;2022-08-01T15:22:30;9.18;;;1.00;;